sensor_id;sensor_type;location;lat;lon;timestamp;P1;durP1;ratioP1;P2;durP2;ratioP2
1140;SDS011;559;48.628;8.924;2023-02-11T00:01:04;108.38;;;102.78;;
1140;SDS011;559;48.628;8.924;2023-02-11T00:03:31;103.43;;;97.30;;
1140;SDS011;559;48.628;8.924;2023-02-11T00:05:58;106.53;;;100.15;;
1140;SDS011;559;48.628;8.924;2023-02-11T00:08:26;110.28;;;104.22;;
1140;SDS011;559;48.628;8.924;2023-02-11T00:10:53;105.28;;;99.25;;
1140;SDS011;559;48.628;8.924;2023-02-11T00:13:20;99.68;;;93.63;;
1140;SDS011;559;48.628;8.924;2023-02-11T00:15:47;103.63;;;97.70;;
1140;SDS011;559;48.628;8.924;2023-02-11T00:18:14;109.82;;;103.60;;
1140;SDS011;559;48.628;8.924;2023-02-11T00:20:41;99.82;;;94.03;;
1140;SDS011;559;48.628;8.924;2023-02-11T00:23:08;102.10;;;96.40;;
1140;SDS011;559;48.628;8.924;2023-02-11T00:25:38;108.13;;;101.70;;
1140;SDS011;559;48.628;8.924;2023-02-11T00:28:05;108.15;;;101.90;;
1140;SDS011;559;48.628;8.924;2023-02-11T00:30:32;109.25;;;103.03;;
1140;SDS011;559;48.628;8.924;2023-02-11T00:32:58;104.60;;;98.05;;
1140;SDS011;559;48.628;8.924;2023-02-11T00:35:25;108.10;;;101.55;;
1140;SDS011;559;48.628;8.924;2023-02-11T00:37:51;103.43;;;97.18;;
1140;SDS011;559;48.628;8.924;2023-02-11T00:40:18;103.82;;;97.93;;
1140;SDS011;559;48.628;8.924;2023-02-11T00:42:46;112.75;;;106.10;;
1140;SDS011;559;48.628;8.924;2023-02-11T00:45:13;111.82;;;105.93;;
1140;SDS011;559;48.628;8.924;2023-02-11T00:47:39;111.72;;;105.65;;
1140;SDS011;559;48.628;8.924;2023-02-11T00:50:06;109.28;;;103.05;;
1140;SDS011;559;48.628;8.924;2023-02-11T00:52:32;107.22;;;101.40;;
1140;SDS011;559;48.628;8.924;2023-02-11T00:54:59;103.97;;;97.78;;
1140;SDS011;559;48.628;8.924;2023-02-11T00:57:25;111.03;;;105.32;;
1140;SDS011;559;48.628;8.924;2023-02-11T00:59:53;99.88;;;94.38;;
1140;SDS011;559;48.628;8.924;2023-02-11T01:02:20;99.72;;;94.03;;
1140;SDS011;559;48.628;8.924;2023-02-11T01:04:46;101.38;;;95.22;;
1140;SDS011;559;48.628;8.924;2023-02-11T01:07:13;101.43;;;95.65;;
1140;SDS011;559;48.628;8.924;2023-02-11T01:09:39;96.38;;;91.03;;
1140;SDS011;559;48.628;8.924;2023-02-11T01:12:06;102.30;;;96.47;;
1140;SDS011;559;48.628;8.924;2023-02-11T01:14:32;99.55;;;93.75;;
1140;SDS011;559;48.628;8.924;2023-02-11T01:17:00;95.20;;;89.30;;
1140;SDS011;559;48.628;8.924;2023-02-11T01:19:27;95.00;;;89.43;;
1140;SDS011;559;48.628;8.924;2023-02-11T01:21:53;98.28;;;92.70;;
1140;SDS011;559;48.628;8.924;2023-02-11T01:24:20;100.88;;;94.85;;
1140;SDS011;559;48.628;8.924;2023-02-11T01:26:46;108.82;;;102.15;;
1140;SDS011;559;48.628;8.924;2023-02-11T01:29:13;100.05;;;94.05;;
1140;SDS011;559;48.628;8.924;2023-02-11T01:31:39;104.88;;;98.38;;
1140;SDS011;559;48.628;8.924;2023-02-11T01:34:07;106.28;;;99.53;;
1140;SDS011;559;48.628;8.924;2023-02-11T01:36:33;105.45;;;98.75;;
1140;SDS011;559;48.628;8.924;2023-02-11T01:39:00;109.07;;;102.72;;
1140;SDS011;559;48.628;8.924;2023-02-11T01:41:26;100.22;;;94.57;;
1140;SDS011;559;48.628;8.924;2023-02-11T01:43:53;97.35;;;91.55;;
1140;SDS011;559;48.628;8.924;2023-02-11T01:46:22;106.43;;;100.30;;
1140;SDS011;559;48.628;8.924;2023-02-11T01:48:56;102.22;;;95.95;;
1140;SDS011;559;48.628;8.924;2023-02-11T01:51:29;103.78;;;97.80;;
1140;SDS011;559;48.628;8.924;2023-02-11T01:53:58;103.57;;;97.38;;
1140;SDS011;559;48.628;8.924;2023-02-11T01:56:44;92.45;;;86.82;;
1140;SDS011;559;48.628;8.924;2023-02-11T01:59:32;92.18;;;85.88;;
1140;SDS011;559;48.628;8.924;2023-02-11T02:02:02;97.05;;;91.32;;
1140;SDS011;559;48.628;8.924;2023-02-11T02:04:32;95.43;;;90.03;;
1140;SDS011;559;48.628;8.924;2023-02-11T02:07:07;101.70;;;95.95;;
1140;SDS011;559;48.628;8.924;2023-02-11T02:09:36;96.90;;;91.18;;
1140;SDS011;559;48.628;8.924;2023-02-11T02:12:05;104.22;;;97.72;;
1140;SDS011;559;48.628;8.924;2023-02-11T02:14:32;103.63;;;97.07;;
1140;SDS011;559;48.628;8.924;2023-02-11T02:16:58;99.25;;;93.38;;
1140;SDS011;559;48.628;8.924;2023-02-11T02:19:40;97.25;;;91.22;;
1140;SDS011;559;48.628;8.924;2023-02-11T02:25:46;99.07;;;93.47;;
1140;SDS011;559;48.628;8.924;2023-02-11T02:28:31;95.82;;;90.20;;
1140;SDS011;559;48.628;8.924;2023-02-11T02:31:12;96.95;;;91.43;;
1140;SDS011;559;48.628;8.924;2023-02-11T02:33:51;97.13;;;91.57;;
1140;SDS011;559;48.628;8.924;2023-02-11T02:36:21;97.93;;;92.38;;
1140;SDS011;559;48.628;8.924;2023-02-11T02:38:49;101.40;;;95.47;;
1140;SDS011;559;48.628;8.924;2023-02-11T02:41:20;92.50;;;87.00;;
1140;SDS011;559;48.628;8.924;2023-02-11T02:43:48;99.63;;;93.38;;
1140;SDS011;559;48.628;8.924;2023-02-11T02:46:17;98.80;;;93.07;;
1140;SDS011;559;48.628;8.924;2023-02-11T02:48:45;97.53;;;91.32;;
1140;SDS011;559;48.628;8.924;2023-02-11T02:51:26;94.88;;;88.80;;
1140;SDS011;559;48.628;8.924;2023-02-11T02:54:11;101.13;;;95.03;;
1140;SDS011;559;48.628;8.924;2023-02-11T02:56:49;101.03;;;94.97;;
1140;SDS011;559;48.628;8.924;2023-02-11T02:59:23;99.63;;;92.72;;
1140;SDS011;559;48.628;8.924;2023-02-11T03:01:55;96.70;;;91.03;;
1140;SDS011;559;48.628;8.924;2023-02-11T03:04:25;93.78;;;88.22;;
1140;SDS011;559;48.628;8.924;2023-02-11T03:06:56;100.38;;;94.25;;
1140;SDS011;559;48.628;8.924;2023-02-11T03:09:28;97.90;;;91.93;;
1140;SDS011;559;48.628;8.924;2023-02-11T03:11:57;88.05;;;82.95;;
1140;SDS011;559;48.628;8.924;2023-02-11T03:14:25;94.15;;;88.95;;
1140;SDS011;559;48.628;8.924;2023-02-11T03:16:53;90.47;;;84.55;;
1140;SDS011;559;48.628;8.924;2023-02-11T03:19:21;90.50;;;84.85;;
1140;SDS011;559;48.628;8.924;2023-02-11T03:21:50;86.70;;;81.72;;
1140;SDS011;559;48.628;8.924;2023-02-11T03:24:20;82.35;;;76.93;;
1140;SDS011;559;48.628;8.924;2023-02-11T03:26:50;88.40;;;82.90;;
1140;SDS011;559;48.628;8.924;2023-02-11T03:29:21;85.32;;;80.07;;
1140;SDS011;559;48.628;8.924;2023-02-11T03:31:55;88.03;;;82.32;;
1140;SDS011;559;48.628;8.924;2023-02-11T03:34:27;93.78;;;87.85;;
1140;SDS011;559;48.628;8.924;2023-02-11T03:36:55;98.28;;;91.32;;
1140;SDS011;559;48.628;8.924;2023-02-11T03:39:28;91.28;;;85.30;;
1140;SDS011;559;48.628;8.924;2023-02-11T03:41:56;91.75;;;86.20;;
1140;SDS011;559;48.628;8.924;2023-02-11T03:44:25;93.07;;;87.75;;
1140;SDS011;559;48.628;8.924;2023-02-11T03:46:55;86.63;;;81.35;;
1140;SDS011;559;48.628;8.924;2023-02-11T03:49:21;95.38;;;89.88;;
1140;SDS011;559;48.628;8.924;2023-02-11T03:51:50;85.97;;;80.13;;
1140;SDS011;559;48.628;8.924;2023-02-11T03:54:18;79.93;;;74.93;;
1140;SDS011;559;48.628;8.924;2023-02-11T03:56:49;82.88;;;77.53;;
1140;SDS011;559;48.628;8.924;2023-02-11T03:59:17;87.43;;;82.22;;
1140;SDS011;559;48.628;8.924;2023-02-11T04:01:43;86.13;;;80.45;;
1140;SDS011;559;48.628;8.924;2023-02-11T04:04:10;88.55;;;83.35;;
1140;SDS011;559;48.628;8.924;2023-02-11T04:06:37;85.72;;;80.38;;
1140;SDS011;559;48.628;8.924;2023-02-11T04:09:03;85.50;;;80.38;;
1140;SDS011;559;48.628;8.924;2023-02-11T04:11:30;93.30;;;87.35;;
1140;SDS011;559;48.628;8.924;2023-02-11T04:13:58;93.70;;;88.00;;
1140;SDS011;559;48.628;8.924;2023-02-11T04:16:24;91.07;;;84.97;;
1140;SDS011;559;48.628;8.924;2023-02-11T04:18:51;90.35;;;84.25;;
1140;SDS011;559;48.628;8.924;2023-02-11T04:21:17;86.72;;;81.40;;
1140;SDS011;559;48.628;8.924;2023-02-11T04:23:44;86.32;;;81.00;;
1140;SDS011;559;48.628;8.924;2023-02-11T04:26:10;84.57;;;79.28;;
1140;SDS011;559;48.628;8.924;2023-02-11T04:28:37;91.78;;;85.30;;
1140;SDS011;559;48.628;8.924;2023-02-11T04:31:05;87.65;;;82.03;;
1140;SDS011;559;48.628;8.924;2023-02-11T04:33:31;85.78;;;80.28;;
1140;SDS011;559;48.628;8.924;2023-02-11T04:35:58;90.07;;;83.80;;
1140;SDS011;559;48.628;8.924;2023-02-11T04:38:25;84.43;;;78.93;;
1140;SDS011;559;48.628;8.924;2023-02-11T04:40:51;90.70;;;84.70;;
1140;SDS011;559;48.628;8.924;2023-02-11T04:43:18;85.95;;;80.55;;
1140;SDS011;559;48.628;8.924;2023-02-11T04:45:44;86.45;;;80.38;;
1140;SDS011;559;48.628;8.924;2023-02-11T04:48:12;89.43;;;83.80;;
1140;SDS011;559;48.628;8.924;2023-02-11T04:50:38;87.82;;;81.85;;
1140;SDS011;559;48.628;8.924;2023-02-11T04:53:05;87.10;;;81.10;;
1140;SDS011;559;48.628;8.924;2023-02-11T04:55:31;81.15;;;75.43;;
1140;SDS011;559;48.628;8.924;2023-02-11T04:57:58;79.75;;;74.25;;
1140;SDS011;559;48.628;8.924;2023-02-11T05:00:24;79.75;;;74.35;;
1140;SDS011;559;48.628;8.924;2023-02-11T05:02:51;80.80;;;75.60;;
1140;SDS011;559;48.628;8.924;2023-02-11T05:05:19;83.78;;;78.15;;
1140;SDS011;559;48.628;8.924;2023-02-11T05:07:45;82.95;;;77.35;;
1140;SDS011;559;48.628;8.924;2023-02-11T05:10:12;80.80;;;75.93;;
1140;SDS011;559;48.628;8.924;2023-02-11T05:12:39;78.72;;;73.30;;
1140;SDS011;559;48.628;8.924;2023-02-11T05:15:05;77.65;;;72.47;;
1140;SDS011;559;48.628;8.924;2023-02-11T05:17:33;79.75;;;74.47;;
1140;SDS011;559;48.628;8.924;2023-02-11T05:19:59;77.47;;;72.30;;
1140;SDS011;559;48.628;8.924;2023-02-11T05:22:27;78.40;;;73.35;;
1140;SDS011;559;48.628;8.924;2023-02-11T05:24:53;83.00;;;77.55;;
1140;SDS011;559;48.628;8.924;2023-02-11T05:27:20;75.38;;;70.47;;
1140;SDS011;559;48.628;8.924;2023-02-11T05:29:46;82.28;;;77.07;;
1140;SDS011;559;48.628;8.924;2023-02-11T05:32:13;78.32;;;72.22;;
1140;SDS011;559;48.628;8.924;2023-02-11T05:34:45;77.15;;;72.00;;
1140;SDS011;559;48.628;8.924;2023-02-11T05:37:12;80.90;;;75.22;;
1140;SDS011;559;48.628;8.924;2023-02-11T05:39:39;78.10;;;73.20;;
1140;SDS011;559;48.628;8.924;2023-02-11T05:42:06;78.57;;;72.78;;
1140;SDS011;559;48.628;8.924;2023-02-11T05:44:32;79.35;;;74.53;;
1140;SDS011;559;48.628;8.924;2023-02-11T05:46:59;82.95;;;77.40;;
1140;SDS011;559;48.628;8.924;2023-02-11T05:49:25;80.00;;;74.90;;
1140;SDS011;559;48.628;8.924;2023-02-11T05:51:52;78.32;;;73.43;;
1140;SDS011;559;48.628;8.924;2023-02-11T05:54:18;76.55;;;71.13;;
1140;SDS011;559;48.628;8.924;2023-02-11T05:56:46;81.10;;;75.60;;
1140;SDS011;559;48.628;8.924;2023-02-11T05:59:13;78.05;;;72.72;;
1140;SDS011;559;48.628;8.924;2023-02-11T06:01:39;81.63;;;76.32;;
1140;SDS011;559;48.628;8.924;2023-02-11T06:04:06;84.07;;;78.30;;
1140;SDS011;559;48.628;8.924;2023-02-11T06:06:32;80.20;;;74.85;;
1140;SDS011;559;48.628;8.924;2023-02-11T06:08:59;78.57;;;73.55;;
1140;SDS011;559;48.628;8.924;2023-02-11T06:11:25;84.13;;;78.55;;
1140;SDS011;559;48.628;8.924;2023-02-11T06:13:56;84.57;;;78.40;;
1140;SDS011;559;48.628;8.924;2023-02-11T06:16:22;88.03;;;81.85;;
1140;SDS011;559;48.628;8.924;2023-02-11T06:18:49;100.97;;;94.00;;
1140;SDS011;559;48.628;8.924;2023-02-11T06:21:15;107.57;;;100.30;;
1140;SDS011;559;48.628;8.924;2023-02-11T06:23:42;102.05;;;95.13;;
1140;SDS011;559;48.628;8.924;2023-02-11T06:26:14;103.65;;;96.32;;
1140;SDS011;559;48.628;8.924;2023-02-11T06:28:42;108.00;;;99.78;;
1140;SDS011;559;48.628;8.924;2023-02-11T06:31:10;104.95;;;97.60;;
1140;SDS011;559;48.628;8.924;2023-02-11T06:33:37;105.72;;;98.32;;
1140;SDS011;559;48.628;8.924;2023-02-11T06:36:17;102.45;;;94.95;;
1140;SDS011;559;48.628;8.924;2023-02-11T06:38:45;99.90;;;93.07;;
1140;SDS011;559;48.628;8.924;2023-02-11T06:41:13;99.50;;;93.05;;
1140;SDS011;559;48.628;8.924;2023-02-11T06:43:41;98.72;;;92.03;;
1140;SDS011;559;48.628;8.924;2023-02-11T06:46:08;101.93;;;95.15;;
1140;SDS011;559;48.628;8.924;2023-02-11T06:48:36;95.50;;;88.90;;
1140;SDS011;559;48.628;8.924;2023-02-11T06:51:03;96.63;;;90.07;;
1140;SDS011;559;48.628;8.924;2023-02-11T06:53:30;95.30;;;88.50;;
1140;SDS011;559;48.628;8.924;2023-02-11T06:56:00;89.75;;;83.85;;
1140;SDS011;559;48.628;8.924;2023-02-11T06:58:28;86.93;;;80.82;;
1140;SDS011;559;48.628;8.924;2023-02-11T07:00:55;83.88;;;78.10;;
1140;SDS011;559;48.628;8.924;2023-02-11T07:03:21;86.15;;;80.20;;
1140;SDS011;559;48.628;8.924;2023-02-11T07:05:49;82.05;;;76.57;;
1140;SDS011;559;48.628;8.924;2023-02-11T07:08:16;83.93;;;78.47;;
1140;SDS011;559;48.628;8.924;2023-02-11T07:10:42;82.50;;;76.78;;
1140;SDS011;559;48.628;8.924;2023-02-11T07:13:09;95.78;;;88.45;;
1140;SDS011;559;48.628;8.924;2023-02-11T07:15:35;86.60;;;80.30;;
1140;SDS011;559;48.628;8.924;2023-02-11T07:18:02;88.25;;;81.82;;
1140;SDS011;559;48.628;8.924;2023-02-11T07:20:29;85.00;;;79.40;;
1140;SDS011;559;48.628;8.924;2023-02-11T07:22:57;87.25;;;81.43;;
1140;SDS011;559;48.628;8.924;2023-02-11T07:25:24;89.47;;;83.63;;
1140;SDS011;559;48.628;8.924;2023-02-11T07:27:51;88.85;;;83.07;;
1140;SDS011;559;48.628;8.924;2023-02-11T07:30:18;92.30;;;86.13;;
1140;SDS011;559;48.628;8.924;2023-02-11T07:32:44;87.78;;;81.80;;
1140;SDS011;559;48.628;8.924;2023-02-11T07:35:11;85.90;;;79.80;;
1140;SDS011;559;48.628;8.924;2023-02-11T07:37:38;86.82;;;80.95;;
1140;SDS011;559;48.628;8.924;2023-02-11T07:40:07;84.13;;;78.22;;
1140;SDS011;559;48.628;8.924;2023-02-11T07:42:34;81.25;;;75.68;;
1140;SDS011;559;48.628;8.924;2023-02-11T07:45:00;78.13;;;72.97;;
1140;SDS011;559;48.628;8.924;2023-02-11T07:47:27;75.82;;;70.57;;
1140;SDS011;559;48.628;8.924;2023-02-11T07:49:53;75.40;;;70.85;;
1140;SDS011;559;48.628;8.924;2023-02-11T07:52:20;77.40;;;72.20;;
1140;SDS011;559;48.628;8.924;2023-02-11T07:54:47;82.82;;;76.72;;
1140;SDS011;559;48.628;8.924;2023-02-11T07:57:14;76.03;;;70.72;;
1140;SDS011;559;48.628;8.924;2023-02-11T07:59:41;78.55;;;72.90;;
1140;SDS011;559;48.628;8.924;2023-02-11T08:02:07;69.60;;;64.90;;
1140;SDS011;559;48.628;8.924;2023-02-11T08:04:34;80.50;;;74.65;;
1140;SDS011;559;48.628;8.924;2023-02-11T08:07:00;72.68;;;67.63;;
1140;SDS011;559;48.628;8.924;2023-02-11T08:09:27;72.97;;;67.75;;
1140;SDS011;559;48.628;8.924;2023-02-11T08:11:53;81.55;;;74.00;;
1140;SDS011;559;48.628;8.924;2023-02-11T08:14:21;79.10;;;72.55;;
1140;SDS011;559;48.628;8.924;2023-02-11T08:16:49;72.80;;;66.78;;
1140;SDS011;559;48.628;8.924;2023-02-11T08:19:16;72.50;;;67.05;;
1140;SDS011;559;48.628;8.924;2023-02-11T08:21:42;68.50;;;63.90;;
1140;SDS011;559;48.628;8.924;2023-02-11T08:24:09;67.28;;;62.72;;
1140;SDS011;559;48.628;8.924;2023-02-11T08:26:36;69.20;;;63.95;;
1140;SDS011;559;48.628;8.924;2023-02-11T08:29:04;66.57;;;62.05;;
1140;SDS011;559;48.628;8.924;2023-02-11T08:31:35;59.55;;;55.40;;
1140;SDS011;559;48.628;8.924;2023-02-11T08:34:02;61.10;;;57.00;;
1140;SDS011;559;48.628;8.924;2023-02-11T08:36:30;59.63;;;56.03;;
1140;SDS011;559;48.628;8.924;2023-02-11T08:38:58;62.10;;;57.55;;
1140;SDS011;559;48.628;8.924;2023-02-11T08:41:27;58.13;;;54.47;;
1140;SDS011;559;48.628;8.924;2023-02-11T08:43:53;58.28;;;54.53;;
1140;SDS011;559;48.628;8.924;2023-02-11T08:46:19;57.88;;;53.75;;
1140;SDS011;559;48.628;8.924;2023-02-11T08:48:47;56.17;;;52.08;;
1140;SDS011;559;48.628;8.924;2023-02-11T08:51:15;54.25;;;49.92;;
1140;SDS011;559;48.628;8.924;2023-02-11T08:53:43;50.75;;;47.70;;
1140;SDS011;559;48.628;8.924;2023-02-11T08:56:10;53.10;;;49.42;;
1140;SDS011;559;48.628;8.924;2023-02-11T08:58:36;55.40;;;51.25;;
1140;SDS011;559;48.628;8.924;2023-02-11T09:01:07;55.40;;;51.60;;
1140;SDS011;559;48.628;8.924;2023-02-11T09:03:34;55.70;;;51.90;;
1140;SDS011;559;48.628;8.924;2023-02-11T09:06:02;54.83;;;50.47;;
1140;SDS011;559;48.628;8.924;2023-02-11T09:08:30;56.22;;;52.58;;
1140;SDS011;559;48.628;8.924;2023-02-11T09:10:56;58.05;;;54.13;;
1140;SDS011;559;48.628;8.924;2023-02-11T09:13:23;56.15;;;51.63;;
1140;SDS011;559;48.628;8.924;2023-02-11T09:15:49;54.13;;;48.88;;
1140;SDS011;559;48.628;8.924;2023-02-11T09:18:16;53.50;;;49.35;;
1140;SDS011;559;48.628;8.924;2023-02-11T09:20:42;55.10;;;50.47;;
1140;SDS011;559;48.628;8.924;2023-02-11T09:23:10;51.85;;;48.00;;
1140;SDS011;559;48.628;8.924;2023-02-11T09:25:37;56.13;;;52.13;;
1140;SDS011;559;48.628;8.924;2023-02-11T09:28:04;51.25;;;47.53;;
1140;SDS011;559;48.628;8.924;2023-02-11T09:30:30;40.63;;;37.63;;
1140;SDS011;559;48.628;8.924;2023-02-11T09:32:57;38.35;;;35.38;;
1140;SDS011;559;48.628;8.924;2023-02-11T09:35:24;40.58;;;37.40;;
1140;SDS011;559;48.628;8.924;2023-02-11T09:37:50;30.80;;;28.70;;
1140;SDS011;559;48.628;8.924;2023-02-11T09:40:18;30.25;;;28.25;;
1140;SDS011;559;48.628;8.924;2023-02-11T09:42:46;27.25;;;25.20;;
1140;SDS011;559;48.628;8.924;2023-02-11T09:45:14;23.23;;;21.52;;
1140;SDS011;559;48.628;8.924;2023-02-11T09:47:44;28.08;;;25.73;;
1140;SDS011;559;48.628;8.924;2023-02-11T09:50:14;22.27;;;20.35;;
1140;SDS011;559;48.628;8.924;2023-02-11T09:52:43;20.50;;;18.88;;
1140;SDS011;559;48.628;8.924;2023-02-11T09:55:14;20.08;;;18.48;;
1140;SDS011;559;48.628;8.924;2023-02-11T09:57:45;20.90;;;19.17;;
1140;SDS011;559;48.628;8.924;2023-02-11T10:00:17;21.23;;;19.73;;
1140;SDS011;559;48.628;8.924;2023-02-11T10:02:52;20.08;;;18.50;;
1140;SDS011;559;48.628;8.924;2023-02-11T10:05:26;18.98;;;17.48;;
1140;SDS011;559;48.628;8.924;2023-02-11T10:08:03;22.25;;;20.15;;
1140;SDS011;559;48.628;8.924;2023-02-11T10:10:42;23.23;;;21.65;;
1140;SDS011;559;48.628;8.924;2023-02-11T10:13:24;21.80;;;20.45;;
1140;SDS011;559;48.628;8.924;2023-02-11T10:15:58;23.38;;;21.60;;
1140;SDS011;559;48.628;8.924;2023-02-11T10:18:33;23.00;;;21.50;;
1140;SDS011;559;48.628;8.924;2023-02-11T10:21:09;21.73;;;19.95;;
1140;SDS011;559;48.628;8.924;2023-02-11T10:23:41;21.77;;;20.00;;
1140;SDS011;559;48.628;8.924;2023-02-11T10:26:12;20.10;;;18.60;;
1140;SDS011;559;48.628;8.924;2023-02-11T10:28:41;22.40;;;20.50;;
1140;SDS011;559;48.628;8.924;2023-02-11T10:31:10;17.63;;;16.23;;
1140;SDS011;559;48.628;8.924;2023-02-11T10:33:40;19.35;;;17.88;;
1140;SDS011;559;48.628;8.924;2023-02-11T10:36:10;16.10;;;14.88;;
1140;SDS011;559;48.628;8.924;2023-02-11T10:38:37;18.20;;;16.80;;
1140;SDS011;559;48.628;8.924;2023-02-11T10:41:04;16.95;;;15.65;;
1140;SDS011;559;48.628;8.924;2023-02-11T10:46:46;21.40;;;19.70;;
1140;SDS011;559;48.628;8.924;2023-02-11T10:49:31;20.15;;;18.65;;
1140;SDS011;559;48.628;8.924;2023-02-11T10:52:11;15.55;;;14.45;;
1140;SDS011;559;48.628;8.924;2023-02-11T10:54:55;16.27;;;14.68;;
1140;SDS011;559;48.628;8.924;2023-02-11T10:57:27;17.80;;;16.33;;
1140;SDS011;559;48.628;8.924;2023-02-11T10:59:57;17.23;;;16.08;;
1140;SDS011;559;48.628;8.924;2023-02-11T11:02:28;18.95;;;17.60;;
1140;SDS011;559;48.628;8.924;2023-02-11T11:04:58;18.48;;;16.67;;
1140;SDS011;559;48.628;8.924;2023-02-11T11:07:27;20.35;;;18.75;;
1140;SDS011;559;48.628;8.924;2023-02-11T11:09:56;18.88;;;17.38;;
1140;SDS011;559;48.628;8.924;2023-02-11T11:12:27;19.73;;;18.13;;
1140;SDS011;559;48.628;8.924;2023-02-11T11:14:57;18.42;;;17.13;;
1140;SDS011;559;48.628;8.924;2023-02-11T11:17:25;19.52;;;18.02;;
1140;SDS011;559;48.628;8.924;2023-02-11T11:19:55;22.35;;;20.35;;
1140;SDS011;559;48.628;8.924;2023-02-11T11:22:41;17.98;;;16.60;;
1140;SDS011;559;48.628;8.924;2023-02-11T11:25:22;20.27;;;18.38;;
1140;SDS011;559;48.628;8.924;2023-02-11T11:27:51;20.20;;;18.58;;
1140;SDS011;559;48.628;8.924;2023-02-11T11:30:22;18.25;;;16.85;;
1140;SDS011;559;48.628;8.924;2023-02-11T11:32:51;21.77;;;18.20;;
1140;SDS011;559;48.628;8.924;2023-02-11T11:35:24;16.83;;;15.55;;
1140;SDS011;559;48.628;8.924;2023-02-11T11:37:52;18.02;;;16.52;;
1140;SDS011;559;48.628;8.924;2023-02-11T11:40:23;17.15;;;15.60;;
1140;SDS011;559;48.628;8.924;2023-02-11T11:45:51;13.77;;;12.63;;
1140;SDS011;559;48.628;8.924;2023-02-11T11:48:19;17.77;;;16.30;;
1140;SDS011;559;48.628;8.924;2023-02-11T11:50:49;16.02;;;14.55;;
1140;SDS011;559;48.628;8.924;2023-02-11T11:53:19;16.55;;;15.23;;
1140;SDS011;559;48.628;8.924;2023-02-11T11:55:49;17.63;;;16.23;;
1140;SDS011;559;48.628;8.924;2023-02-11T11:58:23;19.10;;;17.17;;
1140;SDS011;559;48.628;8.924;2023-02-11T12:00:51;17.73;;;16.42;;
1140;SDS011;559;48.628;8.924;2023-02-11T12:03:45;15.43;;;14.02;;
1140;SDS011;559;48.628;8.924;2023-02-11T12:06:32;13.63;;;12.25;;
1140;SDS011;559;48.628;8.924;2023-02-11T12:09:07;14.13;;;12.98;;
1140;SDS011;559;48.628;8.924;2023-02-11T12:11:43;12.02;;;11.13;;
1140;SDS011;559;48.628;8.924;2023-02-11T12:14:23;11.25;;;10.25;;
1140;SDS011;559;48.628;8.924;2023-02-11T12:16:56;11.80;;;10.80;;
1140;SDS011;559;48.628;8.924;2023-02-11T12:19:43;14.00;;;12.60;;
1140;SDS011;559;48.628;8.924;2023-02-11T12:22:20;13.65;;;12.27;;
1140;SDS011;559;48.628;8.924;2023-02-11T12:24:58;13.20;;;11.73;;
1140;SDS011;559;48.628;8.924;2023-02-11T12:27:36;13.73;;;12.20;;
1140;SDS011;559;48.628;8.924;2023-02-11T12:30:12;12.93;;;11.63;;
1140;SDS011;559;48.628;8.924;2023-02-11T12:32:45;11.52;;;10.50;;
1140;SDS011;559;48.628;8.924;2023-02-11T12:35:16;14.25;;;12.70;;
1140;SDS011;559;48.628;8.924;2023-02-11T12:37:55;12.93;;;11.50;;
1140;SDS011;559;48.628;8.924;2023-02-11T12:40:33;12.80;;;11.50;;
1140;SDS011;559;48.628;8.924;2023-02-11T12:43:04;12.05;;;10.77;;
1140;SDS011;559;48.628;8.924;2023-02-11T12:45:45;12.10;;;10.23;;
1140;SDS011;559;48.628;8.924;2023-02-11T12:48:23;12.13;;;11.13;;
1140;SDS011;559;48.628;8.924;2023-02-11T12:50:56;9.43;;;8.38;;
1140;SDS011;559;48.628;8.924;2023-02-11T12:53:50;8.32;;;7.53;;
1140;SDS011;559;48.628;8.924;2023-02-11T12:56:28;7.78;;;6.50;;
1140;SDS011;559;48.628;8.924;2023-02-11T12:58:59;8.73;;;7.65;;
1140;SDS011;559;48.628;8.924;2023-02-11T13:01:28;14.52;;;8.98;;
1140;SDS011;559;48.628;8.924;2023-02-11T13:03:56;9.25;;;7.60;;
1140;SDS011;559;48.628;8.924;2023-02-11T13:06:28;8.48;;;7.50;;
1140;SDS011;559;48.628;8.924;2023-02-11T13:08:59;9.55;;;8.65;;
1140;SDS011;559;48.628;8.924;2023-02-11T13:11:29;12.02;;;8.43;;
1140;SDS011;559;48.628;8.924;2023-02-11T13:14:01;11.68;;;9.20;;
1140;SDS011;559;48.628;8.924;2023-02-11T13:16:32;8.90;;;8.07;;
1140;SDS011;559;48.628;8.924;2023-02-11T13:19:02;12.07;;;8.52;;
1140;SDS011;559;48.628;8.924;2023-02-11T13:21:36;8.98;;;8.07;;
1140;SDS011;559;48.628;8.924;2023-02-11T13:24:14;9.60;;;8.65;;
1140;SDS011;559;48.628;8.924;2023-02-11T13:26:46;9.27;;;8.38;;
1140;SDS011;559;48.628;8.924;2023-02-11T13:29:20;9.27;;;8.35;;
1140;SDS011;559;48.628;8.924;2023-02-11T13:31:53;9.80;;;8.85;;
1140;SDS011;559;48.628;8.924;2023-02-11T13:34:23;10.55;;;9.13;;
1140;SDS011;559;48.628;8.924;2023-02-11T13:36:54;11.02;;;9.35;;
1140;SDS011;559;48.628;8.924;2023-02-11T13:39:23;11.25;;;9.52;;
1140;SDS011;559;48.628;8.924;2023-02-11T13:41:50;9.27;;;8.50;;
1140;SDS011;559;48.628;8.924;2023-02-11T13:44:27;10.10;;;8.80;;
1140;SDS011;559;48.628;8.924;2023-02-11T13:46:57;10.95;;;10.10;;
1140;SDS011;559;48.628;8.924;2023-02-11T13:49:29;13.23;;;11.07;;
1140;SDS011;559;48.628;8.924;2023-02-11T13:52:00;9.15;;;8.35;;
1140;SDS011;559;48.628;8.924;2023-02-11T13:54:33;9.02;;;8.15;;
1140;SDS011;559;48.628;8.924;2023-02-11T13:59:56;8.30;;;7.60;;
1140;SDS011;559;48.628;8.924;2023-02-11T14:02:25;7.85;;;7.10;;
1140;SDS011;559;48.628;8.924;2023-02-11T14:05:18;8.90;;;8.10;;
1140;SDS011;559;48.628;8.924;2023-02-11T14:08:19;7.47;;;6.80;;
1140;SDS011;559;48.628;8.924;2023-02-11T14:11:39;8.80;;;8.00;;
1140;SDS011;559;48.628;8.924;2023-02-11T14:14:20;6.90;;;6.38;;
1140;SDS011;559;48.628;8.924;2023-02-11T14:17:15;8.77;;;7.90;;
1140;SDS011;559;48.628;8.924;2023-02-11T14:19:46;27.52;;;8.25;;
1140;SDS011;559;48.628;8.924;2023-02-11T14:22:19;7.68;;;7.07;;
1140;SDS011;559;48.628;8.924;2023-02-11T14:24:53;8.73;;;8.13;;
1140;SDS011;559;48.628;8.924;2023-02-11T14:27:27;9.00;;;8.35;;
1140;SDS011;559;48.628;8.924;2023-02-11T14:33:12;23.10;;;13.98;;
1140;SDS011;559;48.628;8.924;2023-02-11T14:36:06;13.38;;;12.38;;
1140;SDS011;559;48.628;8.924;2023-02-11T14:38:39;11.43;;;10.52;;
1140;SDS011;559;48.628;8.924;2023-02-11T14:41:15;12.52;;;11.63;;
1140;SDS011;559;48.628;8.924;2023-02-11T14:43:45;13.98;;;12.98;;
1140;SDS011;559;48.628;8.924;2023-02-11T14:46:14;17.17;;;15.75;;
1140;SDS011;559;48.628;8.924;2023-02-11T14:48:42;19.48;;;18.02;;
1140;SDS011;559;48.628;8.924;2023-02-11T14:51:12;22.90;;;21.52;;
1140;SDS011;559;48.628;8.924;2023-02-11T14:53:42;29.10;;;27.30;;
1140;SDS011;559;48.628;8.924;2023-02-11T14:56:16;27.17;;;25.63;;
1140;SDS011;559;48.628;8.924;2023-02-11T14:58:46;24.52;;;23.05;;
1140;SDS011;559;48.628;8.924;2023-02-11T15:01:22;24.35;;;22.95;;
1140;SDS011;559;48.628;8.924;2023-02-11T15:03:54;21.40;;;20.02;;
1140;SDS011;559;48.628;8.924;2023-02-11T15:06:23;17.92;;;16.73;;
1140;SDS011;559;48.628;8.924;2023-02-11T15:08:51;21.13;;;18.95;;
1140;SDS011;559;48.628;8.924;2023-02-11T15:11:19;19.15;;;17.85;;
1140;SDS011;559;48.628;8.924;2023-02-11T15:13:49;17.38;;;16.08;;
1140;SDS011;559;48.628;8.924;2023-02-11T15:16:16;20.30;;;15.20;;
1140;SDS011;559;48.628;8.924;2023-02-11T15:18:46;16.98;;;14.27;;
1140;SDS011;559;48.628;8.924;2023-02-11T15:21:18;13.15;;;11.85;;
1140;SDS011;559;48.628;8.924;2023-02-11T15:23:53;13.13;;;11.38;;
1140;SDS011;559;48.628;8.924;2023-02-11T15:26:20;11.10;;;9.98;;
1140;SDS011;559;48.628;8.924;2023-02-11T15:28:48;12.05;;;10.93;;
1140;SDS011;559;48.628;8.924;2023-02-11T15:31:16;12.98;;;11.73;;
1140;SDS011;559;48.628;8.924;2023-02-11T15:33:44;13.25;;;11.10;;